Gilze-Rijen, Netherlands

2:25 AM CET on February 06, 2016 (GMT +0100)
Tilburg, Reeshof-Dalem | | Change Station
CLOSE
Current Station
Personal Weather Station
Location: Tilburg, NOORD-BRABANT
Elevation: 23 ft
Nearby Weather Stations

Elev 23 ft 51.58 °N, 4.98 °E | Updated 4 minutes ago

Overcast
Overcast
49.1 °F
Feels Like 47 °F
N
5.4
Wind Variable Wind from SE
Gusts 9.8 mph

Today
High -- | Low -- °F
--% Chance of Precip.
Yesterday
High -- | Low -- °F
Precip. -- in
Pressure 29.95 in
Visibility 6.2 miles
Clouds Few 1400 ft
Mostly Cloudy 1700 ft
Overcast 2000 ft
Windchill 47 °F
Dew Point 44 °F
Humidity 81%
Rainfall 0.00 in
Snow Depth Not available.
8:11 AM 5:37 PM
Waning Crescent, 8% visible
SPECI EHWO 060108Z AUTO 20010KT 180V250 9999 FEW014 BKN017 OVC020 10/07 Q1014 WHT
Pressure 29.95 in
Visibility 6.2 miles
Clouds Few 1400 ft
Mostly Cloudy 1700 ft
Overcast 2000 ft
Windchill 47 °F
Dew Point 44 °F
Humidity 81%
Rainfall 0.00 in
Snow Depth Not available.
8:11 AM 5:37 PM
Waning Crescent, 8% visible
SPECI EHWO 060108Z AUTO 20010KT 180V250 9999 FEW014 BKN017 OVC020 10/07 Q1014 WHT

10-Day Weather Forecast

Almanac

Astronomy

Feb. 06, 2016 Rise Set
Actual Time
Civil Twilight
Nautical Twilight
Astronomical Twilight
Moon
Length of Visible Light
Length of Day
Tomorrow will be .
, % of the Moon is Illuminated

Today's Extremes

Country Highs Country Lows

Community

WunderPhotos

Upload Photos

1,890,904 photos uploaded!

WunderBlog® & News

Nearby

Air Quality

  Air Quality AQ Index Pollutant
Not available.

Snow Depth

Station Depth Elevation

Earthquake Activity

City Distance Mag. Time & Date
Minimum magnitude displayed is 2.5.

Coastal Water Temperatures

Place Temperature

Stations

Nearby Weather Stations

Station Location Temp. Windchill Dew Point Humidity Wind Precip. Elev Updated Type